Impacts METAR Board
IDs:

KSFO - San Francisco Intl, CA, US

Updated at: 1800 UTC 24 Sep 2018
Potential Impact None Slight Moderate High
Time 24/06Z 24/07Z 24/08Z 24/09Z 24/10Z 24/11Z 24/12Z 24/13Z 24/14Z 24/15Z 24/16Z 24/17Z 24/18Z
Temp56 54 53 53 50 53 50 50 50 53 58 62 65
Dewpt49 48 49 47 47 48 47 44 47 47 52 54 55
Altim29.85 29.85 29.86 29.85 29.85 29.85 29.85 29.84 29.85 29.87 29.87 29.87 29.87
VIS10 10 10 10 10 10 10 10 10 10 10 10 10
CIG-- -- -- -- -- -- -- -- -- -- -- -- --
CoverCLRCLRCLRCLRCLRCLRCLRCLRFEWFEWFEWFEWFEW
FltCatVFRVFRVFRVFRVFRVFRVFRVFRVFRVFRVFRVFRVFR
WX--------------------------
WDir3002902802702702902600270007030
WSpd8 7 7 6 6 8 5 0 5 0 0 5 5
WGst-- -- -- -- -- -- -- -- -- -- -- -- --
Raw hourly METARs
KSFO 240556Z 30008KT 10SM CLR 13/09 A2985 RMK AO2 SLP108 T01330094 10183 20128 50001 $
KSFO 240656Z 29007KT 10SM CLR 12/09 A2985 RMK AO2 SLP109 T01220089 $
KSFO 240756Z 28007KT 10SM CLR 12/09 A2986 RMK AO2 SLP111 T01170094 402060111 $
KSFO 240856Z 27006KT 10SM CLR 12/08 A2985 RMK AO2 SLP108 T01170083 58001 $
KSFO 240956Z 27006KT 10SM CLR 10/08 A2985 RMK AO2 SLP108 T01000083 $
KSFO 241056Z 29008KT 10SM CLR 12/09 A2985 RMK AO2 SLP107 T01170089 $
KSFO 241156Z 26005KT 10SM CLR 10/08 A2985 RMK AO2 SLP106 T01000083 10133 20100 58002 $
KSFO 241256Z 00000KT 10SM CLR 10/07 A2984 RMK AO2 SLP105 T01000067 $
KSFO 241404Z 27005KT 10SM FEW008 FEW200 10/08 A2985 RMK AO2 T01000083 $
KSFO 241456Z 00000KT 10SM FEW008 FEW200 12/08 A2987 RMK AO2 SLP113 T01170083 53007
KSFO 241556Z 00000KT 10SM FEW010 FEW200 14/11 A2987 RMK AO2 SLP114 T01440111
KSFO 241656Z COR 07005KT 10SM FEW010 FEW200 17/12 A2987 RMK AO2 SLP115 T01670122
KSFO 241756Z 03005KT 10SM FEW010 FEW200 18/13 A2987 RMK AO2 SLP116 T01830128 10189 20094 52003



Page loaded:  18:01 UTC  |   11:01 AM Pacific  |   12:01 PM Mountain  |   01:01 PM Central  |   02:01 PM Eastern

 

ADVISORIES

FORECASTS

FORECASTS

OBSERVATIONS

USER TOOLS

ABOUT US